WetterOnline ( https://www.wetteronline.ch )

Wetter aktuell Parchim

Aktuelles Wetter: Schwerin (68m)

6-stündlich | Neueste Meldungen
Ortszeit Temperatur Wetter
Di, 28.06. 2:00 16.6° C bewölkt
Mo, 27.06. 20:00 22.0° C bedeckt
Mo, 27.06. 14:00 27.4° C leicht bewölkt
Mo, 27.06. 8:00 21.0° C wolkig
Mo, 27.06. 2:00 18.4° C wolkig
So, 26.06. 20:00 21.5° C bewölkt
So, 26.06. 14:00 25.0° C bewölkt
So, 26.06. 8:00 21.5° C leicht bewölkt
Ortszeit Temperatur Wetter
Di, 28.06. 5:00 15.7° C bewölkt
Di, 28.06. 4:50 15.7° C bewölkt
Di, 28.06. 4:40 15.6° C bewölkt
Di, 28.06. 4:30 15.7° C Sprühregen
Di, 28.06. 4:20 15.7° C Sprühregen
Di, 28.06. 4:10 15.9° C Sprühregen
Di, 28.06. 4:00 16.0° C Sprühregen
Di, 28.06. 3:30 16.3° C bewölkt
Di, 28.06. 3:00 16.5° C bewölkt
Di, 28.06. 2:30 16.5° C bewölkt
Di, 28.06. 2:00 16.6° C bewölkt
Ortszeit Relative Feuchte Sichtweite
Di, 28.06. 2:00 88% 60 km
Mo, 27.06. 20:00 76% 55 km
Mo, 27.06. 14:00 62% 40 km
Mo, 27.06. 8:00 82% 20 km
Mo, 27.06. 2:00 92% 26 km
So, 26.06. 20:00 80% 45 km
So, 26.06. 14:00 65% 45 km
So, 26.06. 8:00 84% 25 km
Ortszeit Relative Feuchte Sichtweite
Di, 28.06. 5:00 93% 55 km
Di, 28.06. 4:50 93% -
Di, 28.06. 4:40 93% -
Di, 28.06. 4:30 93% 6 km
Di, 28.06. 4:20 93% -
Di, 28.06. 4:10 93% -
Di, 28.06. 4:00 91% 11 km
Di, 28.06. 3:30 90% 45 km
Di, 28.06. 3:00 87% 65 km
Di, 28.06. 2:30 89% 40 km
Di, 28.06. 2:00 88% 60 km
Ortszeit Niederschlagsmenge Niederschlagsart
Di, 28.06. 2:00 0.1 l/m2 in 6 Std. Regen
Mo, 27.06. 20:00 0.1 l/m2 in 12 Std. Regen
Mo, 27.06. 14:00 0.0 l/m2 in 6 Std. -
Mo, 27.06. 8:00 0.0 l/m2 in 12 Std. -
Mo, 27.06. 2:00 0.0 l/m2 in 6 Std. -
So, 26.06. 20:00 0.4 l/m2 in 12 Std. Regen
So, 26.06. 14:00 0.4 l/m2 in 6 Std. Regen
So, 26.06. 8:00 0.0 l/m2 in 12 Std. -
Ortszeit Niederschlagsmenge Niederschlagsart
Di, 28.06. 5:00 0.1 l/m2 in 1 Std. Regen
Di, 28.06. 4:50 keine Meldung -
Di, 28.06. 4:40 keine Meldung -
Di, 28.06. 4:30 0.1 l/m2 in 1 Std. -
Di, 28.06. 4:20 keine Meldung -
Di, 28.06. 4:10 keine Meldung -
Di, 28.06. 4:00 0.1 l/m2 in 1 Std. Sprühregen
Di, 28.06. 3:30 0.0 l/m2 in 1 Std. -
Di, 28.06. 3:00 0.1 l/m2 in 1 Std. Regen
Di, 28.06. 2:30 0.1 l/m2 in 1 Std. Schneeregen
Di, 28.06. 2:00 0.1 l/m2 in 1 Std. Regen
Ortszeit Stärke Spitze Richtung
km/h Bft. km/h Grad Sektor
Di, 28.06. 2:00 9 2 35 290° W
Mo, 27.06. 20:00 19 3 35 290° W
Mo, 27.06. 14:00 9 2 20 310° NW
Mo, 27.06. 8:00 9 2 26 330° NW
Mo, 27.06. 2:00 11 2 22 40° NO
So, 26.06. 20:00 13 3 31 10° N
So, 26.06. 14:00 9 2 20 100° O
So, 26.06. 8:00 4 1 11 150° SO
Ortszeit Stärke Spitze Richtung
km/h Bft. km/h Grad Sektor
Di, 28.06. 5:00 11 2 22 280° W
Di, 28.06. 4:50 11 2 - 280° W
Di, 28.06. 4:40 11 2 - 290° W
Di, 28.06. 4:30 11 2 22 280° W
Di, 28.06. 4:20 11 2 - 280° W
Di, 28.06. 4:10 11 2 - 290° W
Di, 28.06. 4:00 14 3 25 270° W
Di, 28.06. 3:30 17 3 26 250° W
Di, 28.06. 3:00 15 3 26 280° W
Di, 28.06. 2:30 11 2 25 300° NW
Di, 28.06. 2:00 9 2 20 290° W
Ortszeit Untergrenze Bedeckung Gattung
total tief tief mittel hoch
Di, 28.06. 2:00 300 m 7/8 7/8 - - -
Mo, 27.06. 20:00 630 m 8/8 8/8 - - -
Mo, 27.06. 14:00 6900 m 6/8 1/8 - - -
Mo, 27.06. 8:00 9000 m 8/8 0/8 - - -
Mo, 27.06. 2:00 3900 m 6/8 3/8 - - -
So, 26.06. 20:00 2100 m 8/8 4/8 - - -
So, 26.06. 14:00 2100 m 8/8 7/8 - - -
So, 26.06. 8:00 9000 m 3/8 0/8 - - -
Ortszeit Bedeckungsgrad in Achtel und Wolkenuntergrenze
Di, 28.06. 5:00 1(300m) 7(570m)
Di, 28.06. 4:50 1(300m) 7(570m)
Di, 28.06. 4:40 7
Di, 28.06. 4:30 1(150m) 3(270m) 7(450m)
Di, 28.06. 4:20 1(150m) 3(270m) 7(450m)
Di, 28.06. 4:10 7
Di, 28.06. 4:00 6(300m) 7(390m)
Di, 28.06. 3:30 7(390m)
Di, 28.06. 3:00 7(390m)
Di, 28.06. 2:30 7(300m)
Di, 28.06. 2:00 7(300m)
Ortszeit Luftdruck NN (hPa) Tendenz (hPa in 3 Std.)
Di, 28.06. 2:00 1018 + 1,4
Mo, 27.06. 20:00 1015 + 1,9
Mo, 27.06. 14:00 1012 - 0,9
Mo, 27.06. 8:00 1014 0,0
Mo, 27.06. 2:00 1014 - 1,1
So, 26.06. 20:00 1016 + 1,1
So, 26.06. 14:00 1014 0,0
So, 26.06. 8:00 1013 + 0,6
Ortszeit Luftdruck NN (hPa) Tendenz (hPa in 3 Std.)
Di, 28.06. 5:00 1019 + 0,9
Di, 28.06. 4:50 1019 keine Meldung
Di, 28.06. 4:40 1019 keine Meldung
Di, 28.06. 4:30 1019 + 1,7
Di, 28.06. 4:20 1019 keine Meldung
Di, 28.06. 4:10 1019 keine Meldung
Di, 28.06. 4:00 1019 + 1,8
Di, 28.06. 3:30 1019 + 1,5
Di, 28.06. 3:00 1018 + 0,9
Di, 28.06. 2:30 1018 + 1,2
Di, 28.06. 2:00 1018 + 1,4
Ortszeit Schneehöhe (cm)
Di, 28.06. 2:00 0
Mo, 27.06. 20:00 0
Mo, 27.06. 14:00 0
Mo, 27.06. 8:00 0
Mo, 27.06. 2:00 0
So, 26.06. 20:00 0
So, 26.06. 14:00 0
So, 26.06. 8:00 0
Ortszeit Schneehöhe (cm)
Di, 28.06. 5:00 0
Di, 28.06. 4:50 0
Di, 28.06. 4:40 0
Di, 28.06. 4:30 0
Di, 28.06. 4:20 0
Di, 28.06. 4:10 0
Di, 28.06. 4:00 0
Di, 28.06. 3:30 0
Di, 28.06. 3:00 0
Di, 28.06. 2:30 0
Di, 28.06. 2:00 0
Link zu dieser Seite / Seite empfehlen

Das Wetter in ...